KAKQ/AKQ METAR and TAF weather

Enter ICAO airport designator
Station Type Date Time Source
KAKQ METAR 2019/05/26 22:54 UTC NOAA

KAKQ 262254Z AUTO 27003KT 10SM CLR 32/19 A2993 RMK AO2 SLP133 T03220189


Station Type Date Time Source
KAKQ Decoded METAR 2019/05/26 22:54 UTC NOAA

WAKEFIELD MUNICIPAL AIRPOR, VA, United States (KAKQ) 36-59N 077-00W 33M
May 26, 2019 - 06:54 PM EDT / 2019.05.26 2254 UTC
Wind: from the W (270 degrees) at 3 MPH (3 KT):0
Visibility: 10 mile(s):0
Sky conditions: clear
Temperature: 90.0 F (32.2 C)
Dew Point: 66.0 F (18.9 C)
Relative Humidity: 45%
Pressure (altimeter): 29.93 in. Hg (1013 hPa)
ob: KAKQ 262254Z AUTO 27003KT 10SM CLR 32/19 A2993 RMK AO2 SLP133 T03220189
cycle: 23

Station Type Date Time Source
KAKQ TAF UTC NOAA

Error!

Example: see airport list